Time;durP1;ratioP1;P1;durP2;ratioP2;P2;SDS_P1;SDS_P2;PMS_P1;PMS_P2;Temp;Humidity;BMP_temperature;BMP_pressure;BME280_temperature;BME280_humidity;BME280_pressure;Samples;Min_cycle;Max_cycle;Signal;HPM_P1;HPM_P2
2022/04/13 00:00:30;;;;;;;44.65;22.92;;;;;;;;;;5046308;28;20033;-73
2022/04/13 00:02:56;;;;;;;45.88;23.00;;;;;;;;;;5046541;28;20017;-73
2022/04/13 00:05:23;;;;;;;46.92;23.38;;;;;;;;;;5046286;28;20471;-73
2022/04/13 00:07:49;;;;;;;45.58;24.77;;;;;;;;;;5024212;28;20057;-72
2022/04/13 00:10:15;;;;;;;45.25;25.15;;;;;;;;;;5045885;28;20066;-72
2022/04/13 00:12:41;;;;;;;43.38;23.67;;;;;;;;;;5046432;28;20487;-72
2022/04/13 00:15:08;;;;;;;48.22;24.75;;;;;;;;;;5048291;28;20509;-73
2022/04/13 00:17:37;;;;;;;46.08;25.17;;;;;;;;;;5045906;28;20029;-73
2022/04/13 00:20:07;;;;;;;46.55;24.95;;;;;;;;;;5043770;28;20134;-73
2022/04/13 00:22:33;;;;;;;49.83;26.45;;;;;;;;;;5047323;28;20088;-74
2022/04/13 00:25:00;;;;;;;46.75;24.33;;;;;;;;;;5042925;28;20034;-74
2022/04/13 00:27:26;;;;;;;48.72;24.55;;;;;;;;;;5046888;28;20086;-72
2022/04/13 00:29:52;;;;;;;50.58;26.15;;;;;;;;;;5047781;28;20029;-72
2022/04/13 00:32:18;;;;;;;44.47;23.75;;;;;;;;;;5041969;28;20033;-74
2022/04/13 00:34:44;;;;;;;49.22;26.23;;;;;;;;;;5039415;28;20357;-73
2022/04/13 00:37:10;;;;;;;47.70;25.17;;;;;;;;;;5044884;28;20039;-73
2022/04/13 00:39:36;;;;;;;45.20;25.33;;;;;;;;;;5050103;28;20043;-72
2022/04/13 00:42:04;;;;;;;51.30;26.65;;;;;;;;;;5050794;28;20075;-73
2022/04/13 00:44:30;;;;;;;47.25;24.80;;;;;;;;;;5046991;28;20112;-71
2022/04/13 00:46:57;;;;;;;53.67;27.05;;;;;;;;;;5050596;28;20107;-72
2022/04/13 00:49:25;;;;;;;43.13;26.10;;;;;;;;;;5049564;28;20107;-72
2022/04/13 00:51:51;;;;;;;46.90;24.60;;;;;;;;;;5050842;28;20743;-73
2022/04/13 00:54:19;;;;;;;49.72;24.10;;;;;;;;;;5047359;28;20479;-73
2022/04/13 00:56:48;;;;;;;47.47;24.50;;;;;;;;;;5051851;28;20025;-72
2022/04/13 00:59:14;;;;;;;38.97;24.20;;;;;;;;;;5047442;28;20052;-71
2022/04/13 01:01:46;;;;;;;50.20;25.50;;;;;;;;;;5045371;28;20019;-72
2022/04/13 01:04:13;;;;;;;53.42;25.92;;;;;;;;;;5049397;28;20382;-72
2022/04/13 01:06:39;;;;;;;49.88;24.67;;;;;;;;;;5045331;28;20060;-72
2022/04/13 01:09:05;;;;;;;54.03;24.95;;;;;;;;;;5050039;28;20035;-72
2022/04/13 01:11:32;;;;;;;51.53;26.35;;;;;;;;;;5050507;28;20033;-72
2022/04/13 01:13:58;;;;;;;49.25;24.33;;;;;;;;;;5049952;28;20035;-72
2022/04/13 01:16:25;;;;;;;49.00;25.92;;;;;;;;;;5051647;28;20052;-73
2022/04/13 01:18:52;;;;;;;43.70;23.63;;;;;;;;;;5049404;28;20029;-71
2022/04/13 01:21:20;;;;;;;54.60;27.25;;;;;;;;;;5046556;28;20026;-73
2022/04/13 01:23:52;;;;;;;47.05;25.63;;;;;;;;;;5046262;28;20250;-73
2022/04/13 01:26:18;;;;;;;47.75;24.55;;;;;;;;;;5045824;28;20021;-72
2022/04/13 01:28:44;;;;;;;53.05;26.27;;;;;;;;;;5045559;28;20033;-72
2022/04/13 01:31:10;;;;;;;44.38;25.25;;;;;;;;;;5049942;28;20521;-72
2022/04/13 01:33:38;;;;;;;43.30;23.20;;;;;;;;;;5046301;28;21478;-73
2022/04/13 01:36:04;;;;;;;45.10;24.05;;;;;;;;;;5050214;28;20021;-73
2022/04/13 01:38:31;;;;;;;51.88;26.60;;;;;;;;;;5051816;28;20033;-74
2022/04/13 01:40:58;;;;;;;45.38;24.10;;;;;;;;;;5047386;28;20448;-73
2022/04/13 01:43:24;;;;;;;48.58;25.25;;;;;;;;;;5050850;28;20029;-73
2022/04/13 01:45:51;;;;;;;49.80;25.95;;;;;;;;;;5049649;28;20029;-72
2022/04/13 01:48:20;;;;;;;50.47;25.98;;;;;;;;;;5048501;28;20071;-73
2022/04/13 01:50:46;;;;;;;48.97;25.85;;;;;;;;;;5044623;28;20025;-72
2022/04/13 01:53:12;;;;;;;53.25;27.05;;;;;;;;;;5050258;28;20024;-72
2022/04/13 01:55:38;;;;;;;50.10;25.85;;;;;;;;;;5049877;28;20139;-72
2022/04/13 01:58:04;;;;;;;47.70;26.67;;;;;;;;;;5037304;28;20094;-73
2022/04/13 02:00:30;;;;;;;49.03;26.25;;;;;;;;;;5046462;28;20502;-72
2022/04/13 02:02:56;;;;;;;54.22;28.77;;;;;;;;;;5044418;28;20021;-72
2022/04/13 02:05:23;;;;;;;51.80;26.40;;;;;;;;;;5046400;28;20071;-72
2022/04/13 02:07:49;;;;;;;50.05;27.13;;;;;;;;;;5044401;28;20064;-72
2022/04/13 02:10:15;;;;;;;54.72;28.02;;;;;;;;;;5043644;28;20056;-72
2022/04/13 02:12:42;;;;;;;56.95;28.00;;;;;;;;;;5049742;28;20574;-72
2022/04/13 02:15:09;;;;;;;50.83;26.45;;;;;;;;;;5048821;28;20028;-72
2022/04/13 02:17:36;;;;;;;55.58;26.80;;;;;;;;;;5048757;28;20044;-73
2022/04/13 02:20:02;;;;;;;54.42;28.65;;;;;;;;;;5048663;28;20013;-72
2022/04/13 02:22:28;;;;;;;51.80;29.52;;;;;;;;;;5031248;28;20390;-72
2022/04/13 02:24:54;;;;;;;49.97;28.60;;;;;;;;;;5048439;28;20033;-71
2022/04/13 02:27:20;;;;;;;51.50;26.33;;;;;;;;;;5049085;28;20025;-72
2022/04/13 02:29:49;;;;;;;54.53;28.35;;;;;;;;;;5046904;28;20044;-73
2022/04/13 02:32:15;;;;;;;52.30;25.63;;;;;;;;;;5043812;28;20028;-72
2022/04/13 02:34:41;;;;;;;54.85;26.83;;;;;;;;;;5046545;28;20029;-72
2022/04/13 02:37:10;;;;;;;56.55;28.25;;;;;;;;;;5045834;28;20036;-73
2022/04/13 02:39:36;;;;;;;48.83;27.88;;;;;;;;;;5049751;28;20032;-72
2022/04/13 02:42:02;;;;;;;48.47;26.75;;;;;;;;;;5048464;28;20551;-73
2022/04/13 02:44:28;;;;;;;54.42;26.15;;;;;;;;;;5048744;28;20119;-73
2022/04/13 02:46:54;;;;;;;52.92;29.27;;;;;;;;;;5046205;28;20077;-72
2022/04/13 02:49:20;;;;;;;50.67;26.23;;;;;;;;;;5047946;28;20029;-72
2022/04/13 02:51:46;;;;;;;52.92;26.55;;;;;;;;;;5045012;28;20029;-72
2022/04/13 02:54:12;;;;;;;56.83;25.60;;;;;;;;;;5047961;28;20059;-71
2022/04/13 02:56:38;;;;;;;56.08;27.30;;;;;;;;;;5047134;28;20068;-72
2022/04/13 02:59:04;;;;;;;52.65;27.15;;;;;;;;;;5044822;28;20025;-72
2022/04/13 03:01:30;;;;;;;53.72;26.38;;;;;;;;;;5047696;28;20017;-72
2022/04/13 03:03:57;;;;;;;50.70;27.38;;;;;;;;;;5048485;28;20037;-72
2022/04/13 03:06:23;;;;;;;53.35;27.30;;;;;;;;;;5048358;28;20045;-71
2022/04/13 03:08:49;;;;;;;51.10;26.88;;;;;;;;;;5044944;28;20303;-72
2022/04/13 03:11:15;;;;;;;46.15;25.60;;;;;;;;;;5048989;28;20033;-72
2022/04/13 03:13:41;;;;;;;53.30;27.08;;;;;;;;;;5048342;28;20493;-72
2022/04/13 03:16:08;;;;;;;48.35;25.52;;;;;;;;;;5047969;28;20021;-72
2022/04/13 03:18:34;;;;;;;47.97;27.40;;;;;;;;;;5044941;28;20040;-72
2022/04/13 03:21:00;;;;;;;48.10;25.70;;;;;;;;;;5047072;28;20604;-73
2022/04/13 03:23:26;;;;;;;47.92;26.13;;;;;;;;;;5046736;28;20027;-73
2022/04/13 03:25:52;;;;;;;50.08;26.35;;;;;;;;;;5047541;28;20087;-73
2022/04/13 03:28:22;;;;;;;49.30;25.67;;;;;;;;;;5046600;28;20029;-73
2022/04/13 03:30:48;;;;;;;48.50;28.90;;;;;;;;;;5047844;28;20450;-73
2022/04/13 03:33:14;;;;;;;46.22;26.30;;;;;;;;;;5047356;28;20021;-73
2022/04/13 03:35:40;;;;;;;48.53;25.05;;;;;;;;;;5044814;28;20032;-73
2022/04/13 03:38:06;;;;;;;45.00;24.23;;;;;;;;;;5044994;28;20552;-73
2022/04/13 03:40:32;;;;;;;48.45;26.05;;;;;;;;;;5042867;28;20029;-73
2022/04/13 03:42:58;;;;;;;50.28;26.73;;;;;;;;;;5047751;28;20108;-72
2022/04/13 03:45:24;;;;;;;42.80;24.75;;;;;;;;;;5047404;28;20025;-73
2022/04/13 03:47:50;;;;;;;44.47;23.58;;;;;;;;;;5045280;28;20120;-72
2022/04/13 03:50:17;;;;;;;48.80;25.52;;;;;;;;;;5047085;28;20086;-73
2022/04/13 03:52:43;;;;;;;47.00;24.60;;;;;;;;;;5047330;28;20411;-73
2022/04/13 03:55:11;;;;;;;48.97;25.73;;;;;;;;;;5048735;28;20047;-72
2022/04/13 03:57:37;;;;;;;42.00;24.05;;;;;;;;;;5046569;28;20025;-71
2022/04/13 04:00:04;;;;;;;45.88;23.95;;;;;;;;;;5045721;28;20024;-72
2022/04/13 04:02:30;;;;;;;42.78;23.67;;;;;;;;;;5046934;28;20513;-71
2022/04/13 04:04:56;;;;;;;46.10;24.27;;;;;;;;;;5045717;28;20047;-71
2022/04/13 04:07:22;;;;;;;45.72;24.80;;;;;;;;;;5047314;28;20055;-72
2022/04/13 04:09:50;;;;;;;43.20;24.52;;;;;;;;;;5045390;28;20542;-72
2022/04/13 04:12:16;;;;;;;44.90;23.35;;;;;;;;;;5046603;28;20033;-72
2022/04/13 04:14:42;;;;;;;48.92;25.30;;;;;;;;;;5046724;28;20081;-72
2022/04/13 04:17:08;;;;;;;47.20;24.73;;;;;;;;;;5043600;28;20581;-72
2022/04/13 04:19:35;;;;;;;46.65;23.60;;;;;;;;;;5042146;28;20081;-72
2022/04/13 04:22:01;;;;;;;49.08;25.20;;;;;;;;;;5046321;28;20025;-72
2022/04/13 04:24:27;;;;;;;47.22;25.23;;;;;;;;;;5046567;28;20499;-72
2022/04/13 04:26:53;;;;;;;42.65;24.55;;;;;;;;;;5048534;28;20552;-72
2022/04/13 04:29:19;;;;;;;45.55;22.58;;;;;;;;;;5047090;28;20028;-71
2022/04/13 04:31:51;;;;;;;49.28;25.10;;;;;;;;;;5048087;28;20041;-71
2022/04/13 04:34:19;;;;;;;44.28;24.10;;;;;;;;;;5043911;28;20420;-72
2022/04/13 04:36:45;;;;;;;49.55;25.42;;;;;;;;;;5047831;28;20033;-72
2022/04/13 04:39:11;;;;;;;50.72;26.23;;;;;;;;;;5042444;28;20029;-72
2022/04/13 04:41:40;;;;;;;45.67;24.95;;;;;;;;;;5047570;28;20027;-72
2022/04/13 04:44:06;;;;;;;48.53;24.08;;;;;;;;;;5045749;28;20025;-72
2022/04/13 04:46:32;;;;;;;45.95;24.33;;;;;;;;;;5047742;28;20035;-72
2022/04/13 04:48:58;;;;;;;47.63;24.70;;;;;;;;;;5045970;28;20035;-71
2022/04/13 04:51:24;;;;;;;46.10;23.42;;;;;;;;;;5041052;28;20044;-72
2022/04/13 04:53:50;;;;;;;45.63;23.75;;;;;;;;;;5046557;28;20917;-71
2022/04/13 04:56:17;;;;;;;49.03;24.95;;;;;;;;;;5046118;28;20025;-72
2022/04/13 04:58:43;;;;;;;41.78;23.30;;;;;;;;;;5046627;28;20274;-71
2022/04/13 05:01:09;;;;;;;50.25;24.67;;;;;;;;;;5043680;28;20717;-72
2022/04/13 05:03:36;;;;;;;45.45;22.02;;;;;;;;;;5045940;28;20025;-72
2022/04/13 05:06:02;;;;;;;47.67;26.25;;;;;;;;;;5044880;28;20037;-72
2022/04/13 05:08:28;;;;;;;50.00;25.70;;;;;;;;;;5047443;28;20025;-73
2022/04/13 05:10:54;;;;;;;42.42;24.15;;;;;;;;;;5043742;28;20028;-72
2022/04/13 05:13:21;;;;;;;48.88;25.80;;;;;;;;;;5047563;28;20141;-71
2022/04/13 05:15:47;;;;;;;48.75;26.10;;;;;;;;;;5048464;28;20026;-72
2022/04/13 05:18:13;;;;;;;53.78;25.05;;;;;;;;;;5048635;28;20044;-72
2022/04/13 05:20:42;;;;;;;46.00;24.80;;;;;;;;;;5047626;28;20120;-72
2022/04/13 05:23:08;;;;;;;45.83;26.15;;;;;;;;;;5048972;28;20029;-72
2022/04/13 05:25:34;;;;;;;47.28;25.73;;;;;;;;;;5047781;28;20100;-72
2022/04/13 05:28:00;;;;;;;46.78;24.23;;;;;;;;;;5049248;28;20730;-72
2022/04/13 05:30:26;;;;;;;51.85;26.52;;;;;;;;;;5048339;28;20139;-72
2022/04/13 05:32:56;;;;;;;47.28;26.27;;;;;;;;;;5050309;28;20033;-72
2022/04/13 05:35:23;;;;;;;62.38;27.48;;;;;;;;;;5048292;28;20051;-73
2022/04/13 05:37:49;;;;;;;55.63;25.75;;;;;;;;;;5051095;28;20035;-72
2022/04/13 05:40:16;;;;;;;53.97;27.08;;;;;;;;;;5033584;28;20094;-73
2022/04/13 05:42:42;;;;;;;52.30;26.33;;;;;;;;;;5046234;28;20052;-72
2022/04/13 05:45:09;;;;;;;47.97;24.90;;;;;;;;;;5050501;28;20025;-73
2022/04/13 05:47:35;;;;;;;51.28;27.08;;;;;;;;;;5049342;28;20029;-72
2022/04/13 05:50:02;;;;;;;50.70;25.27;;;;;;;;;;5040376;28;20017;-72
2022/04/13 05:52:28;;;;;;;51.75;24.95;;;;;;;;;;5050027;28;20040;-73
2022/04/13 05:54:54;;;;;;;55.45;27.95;;;;;;;;;;5048924;28;20029;-72
2022/04/13 05:57:20;;;;;;;51.13;26.30;;;;;;;;;;5048989;28;20049;-71
2022/04/13 05:59:46;;;;;;;55.97;28.17;;;;;;;;;;5043999;28;20079;-72
2022/04/13 06:02:12;;;;;;;47.33;24.55;;;;;;;;;;5047201;28;20052;-72
2022/04/13 06:04:38;;;;;;;47.70;25.80;;;;;;;;;;5049456;28;20064;-72
2022/04/13 06:07:04;;;;;;;48.58;25.70;;;;;;;;;;5044223;28;20056;-73
2022/04/13 06:09:31;;;;;;;46.72;25.77;;;;;;;;;;5049571;28;20036;-72
2022/04/13 06:11:57;;;;;;;47.85;27.65;;;;;;;;;;5045642;28;20024;-72
2022/04/13 06:14:23;;;;;;;48.40;26.35;;;;;;;;;;5046075;28;20861;-72
2022/04/13 06:16:49;;;;;;;50.97;25.88;;;;;;;;;;5049916;28;20044;-74
2022/04/13 06:19:15;;;;;;;52.45;24.80;;;;;;;;;;5044286;28;20033;-73
2022/04/13 06:21:41;;;;;;;48.90;25.27;;;;;;;;;;5043278;28;20701;-72
2022/04/13 06:24:07;;;;;;;50.47;25.08;;;;;;;;;;5028048;28;20026;-73
2022/04/13 06:26:33;;;;;;;54.25;25.65;;;;;;;;;;5049457;28;20033;-73
2022/04/13 06:28:59;;;;;;;50.83;26.00;;;;;;;;;;5051651;28;20032;-72
2022/04/13 06:31:26;;;;;;;54.95;26.83;;;;;;;;;;5051053;28;20041;-73
2022/04/13 06:33:52;;;;;;;48.92;25.55;;;;;;;;;;5047526;28;20056;-73
2022/04/13 06:36:18;;;;;;;48.92;25.55;;;;;;;;;;5024099;28;20029;-72
2022/04/13 06:38:44;;;;;;;49.88;26.63;;;;;;;;;;5047563;28;20083;-71
2022/04/13 06:41:11;;;;;;;46.92;25.30;;;;;;;;;;5045562;28;20059;-72
2022/04/13 06:43:37;;;;;;;48.53;26.08;;;;;;;;;;5049462;28;20654;-72
2022/04/13 06:46:03;;;;;;;45.47;25.02;;;;;;;;;;5030475;28;20059;-72
2022/04/13 06:48:30;;;;;;;45.63;22.40;;;;;;;;;;5043240;28;20032;-73
2022/04/13 06:50:56;;;;;;;40.63;22.35;;;;;;;;;;5044322;28;20108;-72
2022/04/13 06:53:22;;;;;;;41.25;22.80;;;;;;;;;;5044591;28;20021;-72
2022/04/13 06:55:49;;;;;;;43.00;23.30;;;;;;;;;;5045723;28;20033;-72
2022/04/13 06:58:15;;;;;;;39.30;22.30;;;;;;;;;;5045691;28;20071;-72
2022/04/13 07:00:42;;;;;;;36.45;20.90;;;;;;;;;;5046890;28;20082;-72
2022/04/13 07:03:08;;;;;;;39.92;20.73;;;;;;;;;;5029555;28;20034;-72
2022/04/13 07:05:34;;;;;;;38.55;21.00;;;;;;;;;;5046020;28;20033;-73
2022/04/13 07:08:02;;;;;;;38.38;20.73;;;;;;;;;;5046020;28;20072;-72
2022/04/13 07:10:29;;;;;;;33.30;19.73;;;;;;;;;;5048450;28;20028;-72
2022/04/13 07:12:55;;;;;;;34.15;20.38;;;;;;;;;;5046726;28;20511;-73
2022/04/13 07:15:21;;;;;;;32.47;18.70;;;;;;;;;;5048118;28;20055;-72
2022/04/13 07:17:47;;;;;;;30.25;17.92;;;;;;;;;;5048224;28;20025;-72
2022/04/13 07:20:14;;;;;;;35.58;20.30;;;;;;;;;;5046314;28;20044;-73
2022/04/13 07:22:44;;;;;;;33.00;18.50;;;;;;;;;;5039531;28;20801;-72
2022/04/13 07:25:10;;;;;;;31.45;17.92;;;;;;;;;;5043292;28;20029;-72
2022/04/13 07:27:36;;;;;;;32.92;17.77;;;;;;;;;;5023134;28;20085;-73
2022/04/13 07:30:03;;;;;;;30.23;17.70;;;;;;;;;;5043721;28;20029;-72
2022/04/13 07:32:29;;;;;;;29.83;18.15;;;;;;;;;;5044336;28;20040;-71
2022/04/13 07:34:55;;;;;;;35.63;18.45;;;;;;;;;;5038401;28;20097;-72
2022/04/13 07:37:21;;;;;;;28.05;17.48;;;;;;;;;;5046027;28;20371;-73
2022/04/13 07:39:47;;;;;;;29.83;16.85;;;;;;;;;;5045233;28;20033;-73
2022/04/13 07:42:20;;;;;;;29.70;16.10;;;;;;;;;;5047579;28;20024;-72
2022/04/13 07:44:46;;;;;;;30.88;15.90;;;;;;;;;;5044264;28;20166;-73
2022/04/13 07:47:14;;;;;;;29.40;16.65;;;;;;;;;;5042198;28;20028;-72
2022/04/13 07:49:41;;;;;;;27.83;15.73;;;;;;;;;;5043959;28;20033;-72
2022/04/13 07:52:08;;;;;;;27.17;14.88;;;;;;;;;;5042075;28;20677;-73
2022/04/13 07:54:34;;;;;;;26.30;15.98;;;;;;;;;;5040561;28;20061;-72
2022/04/13 07:57:00;;;;;;;29.55;16.25;;;;;;;;;;5040789;28;20494;-71
2022/04/13 07:59:27;;;;;;;24.42;13.90;;;;;;;;;;5038659;28;20036;-72
2022/04/13 08:01:54;;;;;;;26.02;15.38;;;;;;;;;;5022197;28;20028;-72
2022/04/13 08:04:20;;;;;;;22.02;12.77;;;;;;;;;;5035179;28;20033;-72
2022/04/13 08:06:46;;;;;;;25.17;13.65;;;;;;;;;;5039825;28;20048;-72
2022/04/13 08:09:12;;;;;;;21.10;14.27;;;;;;;;;;5032643;28;20055;-73
2022/04/13 08:11:38;;;;;;;22.80;14.18;;;;;;;;;;5029051;28;20170;-73
2022/04/13 08:14:05;;;;;;;22.40;12.63;;;;;;;;;;5038463;28;20044;-76
2022/04/13 08:16:31;;;;;;;21.15;12.68;;;;;;;;;;5015541;28;20033;-74
2022/04/13 08:18:57;;;;;;;22.55;12.80;;;;;;;;;;5034534;28;20037;-74
2022/04/13 08:21:23;;;;;;;19.25;13.05;;;;;;;;;;5041164;28;20037;-74
2022/04/13 08:23:49;;;;;;;20.23;11.68;;;;;;;;;;5033864;28;20222;-73
2022/04/13 08:26:15;;;;;;;19.23;11.93;;;;;;;;;;5037166;28;20104;-72
2022/04/13 08:28:41;;;;;;;17.50;11.30;;;;;;;;;;5038598;28;20055;-72
2022/04/13 08:31:09;;;;;;;21.10;12.48;;;;;;;;;;5020768;28;20434;-72
2022/04/13 08:33:35;;;;;;;19.50;11.63;;;;;;;;;;5038434;28;20037;-73
2022/04/13 08:36:01;;;;;;;19.10;10.75;;;;;;;;;;5039554;28;20112;-71
2022/04/13 08:38:27;;;;;;;15.70;9.60;;;;;;;;;;5037272;28;20068;-72
2022/04/13 08:41:00;;;;;;;13.45;9.27;;;;;;;;;;5037822;28;21026;-72
2022/04/13 08:43:37;;;;;;;16.25;10.27;;;;;;;;;;5034753;28;20034;-73
2022/04/13 08:46:06;;;;;;;16.73;10.30;;;;;;;;;;5035399;28;20082;-74
2022/04/13 08:48:34;;;;;;;14.10;9.82;;;;;;;;;;5035950;28;20021;-73
2022/04/13 08:51:02;;;;;;;14.82;10.25;;;;;;;;;;5036916;28;20036;-73
2022/04/13 08:53:29;;;;;;;14.65;10.45;;;;;;;;;;5017106;28;20033;-73
2022/04/13 08:55:57;;;;;;;13.68;8.80;;;;;;;;;;5038907;28;20116;-73
2022/04/13 08:58:33;;;;;;;14.35;8.35;;;;;;;;;;5017386;28;20017;-73
2022/04/13 09:00:58;;;;;;;;;;;;;;;;;;5038217;28;20029;-73
2022/04/13 09:03:25;;;;;;;13.93;9.25;;;;;;;;;;5040392;28;19962;-73
2022/04/13 09:05:52;;;;;;;15.45;8.18;;;;;;;;;;5039893;28;20036;-73
2022/04/13 09:08:21;;;;;;;14.88;8.75;;;;;;;;;;5040209;28;20123;-74
2022/04/13 09:10:48;;;;;;;13.73;9.75;;;;;;;;;;5039748;28;20483;-73
2022/04/13 09:13:16;;;;;;;14.57;9.48;;;;;;;;;;5040505;28;20025;-73
2022/04/13 09:15:43;;;;;;;13.82;8.82;;;;;;;;;;5043207;28;20073;-73
2022/04/13 09:18:09;;;;;;;16.75;9.80;;;;;;;;;;5020285;28;20029;-74
2022/04/13 09:20:38;;;;;;;14.88;9.52;;;;;;;;;;5040309;28;20627;-75
2022/04/13 09:23:05;;;;;;;15.45;9.40;;;;;;;;;;5041957;28;20040;-76
2022/04/13 09:25:32;;;;;;;12.57;8.65;;;;;;;;;;5040542;28;20094;-74
2022/04/13 09:27:59;;;;;;;12.90;9.35;;;;;;;;;;5023614;28;20025;-74
2022/04/13 09:30:25;;;;;;;14.07;9.63;;;;;;;;;;5042655;28;20033;-74
2022/04/13 09:32:51;;;;;;;12.25;8.70;;;;;;;;;;5044263;28;20490;-74
2022/04/13 09:35:18;;;;;;;13.82;8.75;;;;;;;;;;5025622;28;20465;-74
2022/04/13 09:37:44;;;;;;;12.68;8.07;;;;;;;;;;5042684;28;20028;-74
2022/04/13 09:40:11;;;;;;;13.35;8.70;;;;;;;;;;5043546;28;20032;-74
2022/04/13 09:42:37;;;;;;;13.52;8.48;;;;;;;;;;5043135;28;20386;-75
2022/04/13 09:45:03;;;;;;;9.88;7.45;;;;;;;;;;5042560;28;20110;-75
2022/04/13 09:47:33;;;;;;;10.98;8.00;;;;;;;;;;5039788;28;20047;-74
2022/04/13 09:50:00;;;;;;;11.02;6.95;;;;;;;;;;5042959;28;20033;-74
2022/04/13 09:52:27;;;;;;;12.80;7.78;;;;;;;;;;5040215;28;20087;-74
2022/04/13 09:54:53;;;;;;;11.05;8.18;;;;;;;;;;5041775;28;20037;-74
2022/04/13 09:57:26;;;;;;;13.48;7.63;;;;;;;;;;5042407;28;20108;-76
2022/04/13 09:59:59;;;;;;;9.27;6.80;;;;;;;;;;5041280;28;20568;-74
2022/04/13 10:02:35;;;;;;;10.57;7.38;;;;;;;;;;5041769;28;20028;-74
2022/04/13 10:05:02;;;;;;;12.23;7.90;;;;;;;;;;5042879;28;20678;-73
2022/04/13 10:07:28;;;;;;;10.05;7.57;;;;;;;;;;5040201;28;20535;-75
2022/04/13 10:09:54;;;;;;;11.55;8.10;;;;;;;;;;5037502;28;20258;-74
2022/04/13 10:12:20;;;;;;;9.05;7.05;;;;;;;;;;5018529;28;20048;-74
2022/04/13 10:14:46;;;;;;;10.93;8.70;;;;;;;;;;5042053;28;20248;-74
2022/04/13 10:17:13;;;;;;;11.20;7.85;;;;;;;;;;5047228;28;20024;-74
2022/04/13 10:19:39;;;;;;;10.68;8.05;;;;;;;;;;5027046;28;21719;-73
2022/04/13 10:22:06;;;;;;;10.77;8.10;;;;;;;;;;5032033;28;20032;-74
2022/04/13 10:24:37;;;;;;;9.90;7.93;;;;;;;;;;5044857;28;20805;-73
2022/04/13 10:27:09;;;;;;;10.70;8.70;;;;;;;;;;5049310;28;20155;-73
2022/04/13 10:29:36;;;;;;;9.63;7.82;;;;;;;;;;5044645;28;20029;-73
2022/04/13 10:32:03;;;;;;;10.23;8.38;;;;;;;;;;5048403;28;20040;-74
2022/04/13 10:34:30;;;;;;;9.88;7.00;;;;;;;;;;5044699;28;20061;-74
2022/04/13 10:36:56;;;;;;;9.38;7.80;;;;;;;;;;5049632;28;20029;-74
2022/04/13 10:39:22;;;;;;;9.07;6.90;;;;;;;;;;5047455;28;20025;-73
2022/04/13 10:41:48;;;;;;;9.77;7.15;;;;;;;;;;5050188;28;20124;-74
2022/04/13 10:44:20;;;;;;;9.88;6.82;;;;;;;;;;5047553;28;20443;-74
2022/04/13 10:46:48;;;;;;;10.25;7.05;;;;;;;;;;5048342;28;20037;-73
2022/04/13 10:49:17;;;;;;;7.97;6.07;;;;;;;;;;5046018;28;20021;-74
2022/04/13 10:51:45;;;;;;;10.15;8.07;;;;;;;;;;5049083;28;20487;-74
2022/04/13 10:54:13;;;;;;;6.72;6.00;;;;;;;;;;5049803;28;20112;-73
2022/04/13 10:56:42;;;;;;;8.00;6.47;;;;;;;;;;5048238;28;20535;-74
2022/04/13 10:59:16;;;;;;;9.13;5.72;;;;;;;;;;5049148;28;20098;-73
2022/04/13 11:01:45;;;;;;;6.40;5.68;;;;;;;;;;5048806;28;20084;-74
2022/04/13 11:04:12;;;;;;;8.38;5.57;;;;;;;;;;5031548;28;20223;-73
2022/04/13 11:06:39;;;;;;;6.28;4.97;;;;;;;;;;5043700;28;20064;-74
2022/04/13 11:09:12;;;;;;;7.70;4.85;;;;;;;;;;5048922;28;20861;-73
2022/04/13 11:11:40;;;;;;;6.07;4.55;;;;;;;;;;5038860;28;20574;-74
2022/04/13 11:14:19;;;;;;;7.95;4.72;;;;;;;;;;5045577;28;20115;-74
2022/04/13 11:16:45;;;;;;;4.10;3.78;;;;;;;;;;5044981;28;20467;-74
2022/04/13 11:19:11;;;;;;;5.93;4.43;;;;;;;;;;5047291;28;20037;-73
2022/04/13 11:21:52;;;;;;;4.97;4.15;;;;;;;;;;5046774;28;20094;-74
2022/04/13 11:24:35;;;;;;;8.65;4.15;;;;;;;;;;5029380;28;20028;-75
2022/04/13 11:27:01;;;;;;;7.85;4.00;;;;;;;;;;5046894;28;20458;-74
2022/04/13 11:29:37;;;;;;;4.82;3.88;;;;;;;;;;5046319;28;20037;-73
2022/04/13 11:32:06;;;;;;;4.97;3.97;;;;;;;;;;5027600;28;20670;-74
2022/04/13 11:34:41;;;;;;;4.95;4.45;;;;;;;;;;5049235;28;20075;-75
2022/04/13 11:37:12;;;;;;;5.85;3.72;;;;;;;;;;5043055;28;20036;-74
2022/04/13 11:39:49;;;;;;;8.05;5.93;;;;;;;;;;5049295;28;20025;-73
2022/04/13 11:42:15;;;;;;;6.90;4.68;;;;;;;;;;5041833;28;20036;-74
2022/04/13 11:44:55;;;;;;;4.40;4.00;;;;;;;;;;5048241;28;20047;-74
2022/04/13 11:47:22;;;;;;;4.63;3.47;;;;;;;;;;5047869;28;20048;-72
2022/04/13 11:50:02;;;;;;;5.63;4.45;;;;;;;;;;5048490;28;20025;-74
2022/04/13 11:52:48;;;;;;;7.82;4.05;;;;;;;;;;5047015;28;20028;-75
2022/04/13 11:55:24;;;;;;;4.63;3.50;;;;;;;;;;5047999;28;20096;-75
2022/04/13 11:58:08;;;;;;;5.47;3.75;;;;;;;;;;5048083;28;20080;-73
2022/04/13 12:00:41;;;;;;;6.32;4.10;;;;;;;;;;5046534;28;20471;-74
2022/04/13 12:03:11;;;;;;;5.05;4.50;;;;;;;;;;5030477;28;20036;-74
2022/04/13 12:05:39;;;;;;;4.53;4.13;;;;;;;;;;5047318;28;20320;-74
2022/04/13 12:08:12;;;;;;;4.28;3.10;;;;;;;;;;5047070;28;20041;-74
2022/04/13 12:10:39;;;;;;;4.15;3.20;;;;;;;;;;5049267;28;20022;-74
2022/04/13 12:13:05;;;;;;;3.45;3.15;;;;;;;;;;5047007;28;20410;-73
2022/04/13 12:16:01;;;;;;;5.70;3.55;;;;;;;;;;5048152;28;20029;-74
2022/04/13 12:18:29;;;;;;;5.40;3.25;;;;;;;;;;5029425;28;20033;-74
2022/04/13 12:21:06;;;;;;;4.97;3.30;;;;;;;;;;5052988;28;20025;-74
2022/04/13 12:23:35;;;;;;;4.30;3.33;;;;;;;;;;5048145;28;20036;-75
2022/04/13 12:26:01;;;;;;;4.18;3.15;;;;;;;;;;5047185;28;20106;-74
2022/04/13 12:28:27;;;;;;;4.20;3.10;;;;;;;;;;5046534;28;20052;-74
2022/04/13 12:30:58;;;;;;;5.07;3.05;;;;;;;;;;5046200;28;20033;-73
2022/04/13 12:33:25;;;;;;;4.30;2.95;;;;;;;;;;5046438;28;20025;-74
2022/04/13 12:35:54;;;;;;;7.13;2.90;;;;;;;;;;5050570;28;20435;-74
2022/04/13 12:38:28;;;;;;;3.72;2.70;;;;;;;;;;5051908;28;20085;-73
2022/04/13 12:41:03;;;;;;;6.47;2.60;;;;;;;;;;5052567;28;20021;-74
2022/04/13 12:43:29;;;;;;;3.28;2.20;;;;;;;;;;5046239;28;20029;-74
2022/04/13 12:45:55;;;;;;;4.78;2.45;;;;;;;;;;5033819;28;20206;-74
2022/04/13 12:48:28;;;;;;;3.35;2.28;;;;;;;;;;5050189;28;20815;-74
2022/04/13 12:51:01;;;;;;;3.45;2.33;;;;;;;;;;5051940;28;20510;-73
2022/04/13 12:53:28;;;;;;;6.57;2.78;;;;;;;;;;5048709;28;20040;-73
2022/04/13 12:55:57;;;;;;;2.50;2.30;;;;;;;;;;5044173;28;20040;-73
2022/04/13 12:58:24;;;;;;;4.93;3.25;;;;;;;;;;5032309;28;20025;-74
2022/04/13 13:00:54;;;;;;;4.72;2.80;;;;;;;;;;5050501;28;20021;-74
2022/04/13 13:03:21;;;;;;;7.22;3.67;;;;;;;;;;5049423;28;20313;-74
2022/04/13 13:05:47;;;;;;;3.60;2.50;;;;;;;;;;5049417;28;20436;-74
2022/04/13 13:08:14;;;;;;;4.85;2.33;;;;;;;;;;5048685;28;20041;-74
2022/04/13 13:10:45;;;;;;;6.43;2.63;;;;;;;;;;5047613;28;20056;-74
2022/04/13 13:13:18;;;;;;;6.03;2.58;;;;;;;;;;5049599;28;20036;-74
2022/04/13 13:15:44;;;;;;;3.63;2.40;;;;;;;;;;5051039;28;20025;-75
2022/04/13 13:18:10;;;;;;;3.33;2.25;;;;;;;;;;5050667;28;20017;-74
2022/04/13 13:20:52;;;;;;;3.90;3.00;;;;;;;;;;5051653;28;20021;-75
2022/04/13 13:23:28;;;;;;;6.60;3.08;;;;;;;;;;5050189;28;20025;-73
2022/04/13 13:25:55;;;;;;;3.65;2.83;;;;;;;;;;5052003;28;20032;-73
2022/04/13 13:28:27;;;;;;;3.70;3.30;;;;;;;;;;5047382;28;20040;-73
2022/04/13 13:30:55;;;;;;;6.88;3.00;;;;;;;;;;5049791;28;20025;-73
2022/04/13 13:33:22;;;;;;;3.35;2.40;;;;;;;;;;5048351;28;20017;-75
2022/04/13 13:35:48;;;;;;;3.83;2.50;;;;;;;;;;5049952;28;20035;-74
2022/04/13 13:38:19;;;;;;;7.60;3.15;;;;;;;;;;5046490;28;20033;-73
2022/04/13 13:40:47;;;;;;;6.05;3.20;;;;;;;;;;5049490;28;20028;-75
2022/04/13 13:43:16;;;;;;;4.57;3.03;;;;;;;;;;5050550;28;20040;-73
2022/04/13 13:45:46;;;;;;;4.10;3.15;;;;;;;;;;5028125;28;20025;-73
2022/04/13 13:48:13;;;;;;;4.97;3.30;;;;;;;;;;5046837;28;20032;-74
2022/04/13 13:50:43;;;;;;;3.97;3.58;;;;;;;;;;5044691;28;20021;-74
2022/04/13 13:53:10;;;;;;;4.05;2.90;;;;;;;;;;5049571;28;20100;-73
2022/04/13 13:55:38;;;;;;;3.90;3.25;;;;;;;;;;5050448;28;20067;-75
2022/04/13 13:58:05;;;;;;;3.95;3.45;;;;;;;;;;5051136;28;20099;-72
2022/04/13 14:00:34;;;;;;;5.95;3.17;;;;;;;;;;5050026;28;20513;-73
2022/04/13 14:03:01;;;;;;;4.07;2.90;;;;;;;;;;5049995;28;20479;-73
2022/04/13 14:05:28;;;;;;;7.57;3.60;;;;;;;;;;5050410;28;20032;-74
2022/04/13 14:07:55;;;;;;;4.03;3.05;;;;;;;;;;5047669;28;20049;-74
2022/04/13 14:10:21;;;;;;;4.55;2.75;;;;;;;;;;5048354;28;20025;-73
2022/04/13 14:12:47;;;;;;;2.83;2.53;;;;;;;;;;5046048;28;20393;-73
2022/04/13 14:15:14;;;;;;;3.90;2.65;;;;;;;;;;5050639;28;20040;-73
2022/04/13 14:17:41;;;;;;;4.15;2.65;;;;;;;;;;5034077;28;20100;-74
2022/04/13 14:20:07;;;;;;;4.13;2.72;;;;;;;;;;5050881;28;20425;-74
2022/04/13 14:22:34;;;;;;;3.85;3.10;;;;;;;;;;5050019;28;20025;-74
2022/04/13 14:25:00;;;;;;;4.43;2.90;;;;;;;;;;5048331;28;20048;-73
2022/04/13 14:27:27;;;;;;;5.80;3.05;;;;;;;;;;5048788;28;20452;-73